Main page
METAR-TAF:

METAR-TAF

Airports :

Skyros Island National Airport

Skyros, Greece

latitude: 38-58-03N, longitude: 024-29-14E, elevation: 13 m

METAR: missing

Time: 13:26 (10:26 UTC)

Forecast

The report was made 2 hours and 26 minutes ago, at 08:00 UTC
Forecast valid from 18 at 09 UTC to 18 at 18 UTC
Wind 12 kt from the North/Northwest
Visibility 10 km or more
Scattered clouds at a height of 2000 ft

TAF: LGSY 180800Z 1809/1818 34012KT 9999 SCT020

Weather observations and forecasts of more than 4000 airports (METAR and TAF reports).

The available stations are represented by yellow and red dots on the map.

Hover mouse over dot to see the name of the station.

Then click to see weather observations and forecasts.

To change the map : click on the green buttons with a black cross to zoom in, on the green button with a dash to zoom out, or on the green arrows for adjacent maps.


METAR-TAF: